createdAt,value
2018-05-23T00:00:28.526Z,4.65
2018-05-23T00:01:02.383Z,4.90
2018-05-23T00:01:36.276Z,4.90
2018-05-23T00:02:10.131Z,5.00
2018-05-23T00:02:43.999Z,4.40
2018-05-23T00:03:17.876Z,4.80
2018-05-23T00:03:51.777Z,4.18
2018-05-23T00:04:25.756Z,4.30
2018-05-23T00:04:59.568Z,4.80
2018-05-23T00:05:33.503Z,4.68
2018-05-23T00:06:07.392Z,4.57
2018-05-23T00:06:41.263Z,4.65
2018-05-23T00:07:15.126Z,4.80
2018-05-23T00:07:49.021Z,4.57
2018-05-23T00:08:22.922Z,4.97
2018-05-23T00:08:56.814Z,4.75
2018-05-23T00:09:30.701Z,4.90
2018-05-23T00:10:04.573Z,5.18
2018-05-23T00:10:38.455Z,4.50
2018-05-23T00:11:12.352Z,4.68
2018-05-23T00:11:46.251Z,4.25
2018-05-23T00:12:20.135Z,5.15
2018-05-23T00:12:54.004Z,5.15
2018-05-23T00:13:27.883Z,4.70
2018-05-23T00:14:01.805Z,5.40
2018-05-23T00:14:35.662Z,4.70
2018-05-23T00:15:09.513Z,4.80
2018-05-23T00:15:43.388Z,4.90
2018-05-23T00:16:17.263Z,4.95
2018-05-23T00:16:51.135Z,5.30
2018-05-23T00:17:25.005Z,4.53
2018-05-23T00:17:58.876Z,5.30
2018-05-23T00:18:32.777Z,5.30
2018-05-23T00:19:06.668Z,5.28
2018-05-23T00:19:40.533Z,4.75
2018-05-23T00:20:14.430Z,5.80
2018-05-23T00:20:48.307Z,5.10
2018-05-23T00:21:22.176Z,4.30
2018-05-23T00:21:56.033Z,4.62
2018-05-23T00:22:29.916Z,5.03
2018-05-23T00:23:03.785Z,5.80
2018-05-23T00:23:37.656Z,4.20
2018-05-23T00:24:11.572Z,5.05
2018-05-23T00:24:45.446Z,4.12
2018-05-23T00:25:19.303Z,4.72
2018-05-23T00:25:53.175Z,4.60
2018-05-23T00:26:27.065Z,5.68
2018-05-23T00:27:00.932Z,4.72
2018-05-23T00:27:34.803Z,4.35
2018-05-23T00:28:08.675Z,4.80
2018-05-23T00:28:42.648Z,4.55
2018-05-23T00:29:16.837Z,4.40
2018-05-23T00:29:50.698Z,4.68
2018-05-23T00:30:24.604Z,4.40
2018-05-23T00:30:58.471Z,4.43
2018-05-23T00:31:32.353Z,4.25
2018-05-23T00:32:06.244Z,4.55
2018-05-23T00:32:40.098Z,4.40
2018-05-23T00:33:13.966Z,4.25
2018-05-23T00:33:47.857Z,4.68
2018-05-23T00:34:21.766Z,4.50
2018-05-23T00:34:55.660Z,4.10
2018-05-23T00:35:29.542Z,4.80
2018-05-23T00:36:03.412Z,4.60
2018-05-23T00:36:37.333Z,4.60
2018-05-23T00:37:12.065Z,4.45
2018-05-23T00:37:45.948Z,4.53
2018-05-23T00:38:19.825Z,4.90
2018-05-23T00:38:53.694Z,4.43
2018-05-23T00:39:27.633Z,4.75
2018-05-23T00:40:01.582Z,4.00
2018-05-23T00:40:35.447Z,4.78
2018-05-23T00:41:09.348Z,4.35
2018-05-23T00:41:43.398Z,4.90
2018-05-23T00:42:17.288Z,4.93
2018-05-23T00:42:51.179Z,4.57
2018-05-23T00:43:25.704Z,4.45
2018-05-23T00:43:59.585Z,4.85
2018-05-23T00:44:33.467Z,4.22
2018-05-23T00:45:07.355Z,4.62
2018-05-23T00:45:41.229Z,5.30
2018-05-23T00:46:15.103Z,4.47
2018-05-23T00:46:48.976Z,4.80
2018-05-23T00:47:22.839Z,4.85
2018-05-23T00:47:56.707Z,4.25
2018-05-23T00:48:30.565Z,4.05
2018-05-23T00:49:04.446Z,4.50
2018-05-23T00:49:38.345Z,4.32
2018-05-23T00:50:12.223Z,4.95
2018-05-23T00:50:46.242Z,4.90
2018-05-23T00:51:20.116Z,4.22
2018-05-23T00:51:53.984Z,4.00
2018-05-23T00:52:27.865Z,4.47
2018-05-23T00:53:01.828Z,4.62
2018-05-23T00:53:35.711Z,4.10
2018-05-23T00:54:09.604Z,4.90
2018-05-23T00:54:49.441Z,4.45
2018-05-23T00:55:29.240Z,5.07
2018-05-23T00:56:03.111Z,4.60
2018-05-23T00:56:36.990Z,4.60
2018-05-23T00:57:10.857Z,4.53
2018-05-23T00:57:44.748Z,4.90
2018-05-23T00:58:18.606Z,5.05
2018-05-23T00:58:52.475Z,4.75
2018-05-23T00:59:26.361Z,5.37
2018-05-23T01:00:00.248Z,5.12
2018-05-23T01:00:34.125Z,5.57
2018-05-23T01:01:08.021Z,4.50
2018-05-23T01:01:41.910Z,4.90
2018-05-23T01:02:15.806Z,4.45
2018-05-23T01:02:49.676Z,4.40
2018-05-23T01:03:23.562Z,4.30
2018-05-23T01:03:57.428Z,4.65
2018-05-23T01:04:31.293Z,4.93
2018-05-23T01:05:05.188Z,4.55
2018-05-23T01:05:39.093Z,4.40
2018-05-23T01:06:12.967Z,4.55
2018-05-23T01:06:46.821Z,4.87
2018-05-23T01:07:20.713Z,4.40
2018-05-23T01:07:54.594Z,4.40
2018-05-23T01:08:28.464Z,3.85
2018-05-23T01:09:02.345Z,5.53
2018-05-23T01:09:36.210Z,4.75
2018-05-23T01:10:10.089Z,4.65
2018-05-23T01:10:43.966Z,4.55
2018-05-23T01:11:17.823Z,5.07
2018-05-23T01:11:51.684Z,4.70
2018-05-23T01:12:25.563Z,4.47
2018-05-23T01:12:59.438Z,5.05
2018-05-23T01:13:33.298Z,5.50
2018-05-23T01:14:07.404Z,4.32
2018-05-23T01:14:41.281Z,4.78
2018-05-23T01:15:15.159Z,4.85
2018-05-23T01:15:49.048Z,4.62
2018-05-23T01:16:22.966Z,5.20
2018-05-23T01:16:56.830Z,4.40
2018-05-23T01:17:30.698Z,4.90
2018-05-23T01:18:04.553Z,4.55
2018-05-23T01:18:38.419Z,3.87
2018-05-23T01:19:12.292Z,4.40
2018-05-23T01:19:46.151Z,4.25
2018-05-23T01:20:20.047Z,4.65
2018-05-23T01:20:53.939Z,4.55
2018-05-23T01:21:27.811Z,5.65
2018-05-23T01:22:01.673Z,4.82
2018-05-23T01:22:35.570Z,4.20
2018-05-23T01:23:09.475Z,4.85
2018-05-23T01:23:43.412Z,5.03
2018-05-23T01:24:17.347Z,5.03
2018-05-23T01:24:51.242Z,5.37
2018-05-23T01:25:25.125Z,4.40
2018-05-23T01:25:59.002Z,4.75
2018-05-23T01:26:32.875Z,4.72
2018-05-23T01:27:06.757Z,4.80
2018-05-23T01:27:40.622Z,4.75
2018-05-23T01:28:14.491Z,4.53
2018-05-23T01:28:48.361Z,4.97
2018-05-23T01:29:22.830Z,4.70
2018-05-23T01:29:56.709Z,4.80
2018-05-23T01:30:31.246Z,5.55
2018-05-23T01:31:05.133Z,5.18
2018-05-23T01:31:39.004Z,4.95
2018-05-23T01:32:12.861Z,4.05
2018-05-23T01:32:46.724Z,5.03
2018-05-23T01:33:20.609Z,5.22
2018-05-23T01:33:54.503Z,4.97
2018-05-23T01:34:28.376Z,4.75
2018-05-23T01:35:02.229Z,4.85
2018-05-23T01:35:36.127Z,4.80
2018-05-23T01:36:10.027Z,4.85
2018-05-23T01:36:43.896Z,4.55
2018-05-23T01:37:17.767Z,5.20
2018-05-23T01:37:51.674Z,5.90
2018-05-23T01:38:25.553Z,5.40
2018-05-23T01:38:59.438Z,4.28
2018-05-23T01:39:33.360Z,4.57
2018-05-23T01:40:07.240Z,4.70
2018-05-23T01:40:41.166Z,4.70
2018-05-23T01:41:15.028Z,4.85
2018-05-23T01:41:48.935Z,4.82
2018-05-23T01:42:22.881Z,4.87
2018-05-23T01:42:56.759Z,4.50
2018-05-23T01:43:30.674Z,5.53
2018-05-23T01:44:04.591Z,5.65
2018-05-23T01:44:38.468Z,4.68
2018-05-23T01:45:12.387Z,4.00
2018-05-23T01:45:46.274Z,4.78
2018-05-23T01:46:20.139Z,4.20
2018-05-23T01:46:54.059Z,5.37
2018-05-23T01:47:27.957Z,5.12
2018-05-23T01:48:01.852Z,4.78
2018-05-23T01:48:41.559Z,5.00
2018-05-23T01:49:21.348Z,4.65
2018-05-23T01:49:55.241Z,4.28
2018-05-23T01:50:29.135Z,4.35
2018-05-23T01:51:03.024Z,5.45
2018-05-23T01:51:36.879Z,5.37
2018-05-23T01:52:10.816Z,4.65
2018-05-23T01:52:44.760Z,5.00
2018-05-23T01:53:18.628Z,4.25
2018-05-23T01:53:52.603Z,5.62
2018-05-23T01:54:26.488Z,4.90
2018-05-23T01:55:00.393Z,4.97
2018-05-23T01:55:34.260Z,5.10
2018-05-23T01:56:08.629Z,4.70
2018-05-23T01:56:42.507Z,4.65
2018-05-23T01:57:16.471Z,4.28
2018-05-23T01:57:50.361Z,4.60
2018-05-23T01:58:24.312Z,4.55
2018-05-23T01:58:58.180Z,4.60
2018-05-23T01:59:32.047Z,5.35
2018-05-23T02:00:05.918Z,5.50
2018-05-23T02:00:39.799Z,5.05
2018-05-23T02:01:13.724Z,5.78
2018-05-23T02:01:47.639Z,4.72
2018-05-23T02:02:21.740Z,4.53
2018-05-23T02:02:55.597Z,4.60
2018-05-23T02:03:29.480Z,5.30
2018-05-23T02:04:03.345Z,5.40
2018-05-23T02:04:37.224Z,5.20
2018-05-23T02:05:11.108Z,5.30
2018-05-23T02:05:44.992Z,5.20
2018-05-23T02:06:18.865Z,4.90
2018-05-23T02:06:52.909Z,4.97
2018-05-23T02:07:26.794Z,5.20
2018-05-23T02:08:00.774Z,4.90
2018-05-23T02:08:34.642Z,4.22
2018-05-23T02:09:08.505Z,5.60
2018-05-23T02:09:42.371Z,5.55
2018-05-23T02:10:16.250Z,5.37
2018-05-23T02:10:50.124Z,5.03
2018-05-23T02:11:24.057Z,4.87
2018-05-23T02:11:57.918Z,4.85
2018-05-23T02:12:31.803Z,5.30
2018-05-23T02:13:05.678Z,5.62
2018-05-23T02:13:39.559Z,5.22
2018-05-23T02:14:13.429Z,5.30
2018-05-23T02:14:47.305Z,5.15
2018-05-23T02:15:21.174Z,5.32
2018-05-23T02:15:55.057Z,5.22
2018-05-23T02:16:28.962Z,4.80
2018-05-23T02:17:02.821Z,5.30
2018-05-23T02:17:36.692Z,4.87
2018-05-23T02:18:10.565Z,4.80
2018-05-23T02:18:44.439Z,4.37
2018-05-23T02:19:18.348Z,5.03
2018-05-23T02:19:52.254Z,4.82
2018-05-23T02:20:26.129Z,5.32
2018-05-23T02:20:59.989Z,4.95
2018-05-23T02:21:33.874Z,4.87
2018-05-23T02:22:08.055Z,5.15
2018-05-23T02:22:41.934Z,4.95
2018-05-23T02:23:15.841Z,4.75
2018-05-23T02:23:49.814Z,5.30
2018-05-23T02:24:23.697Z,4.32
2018-05-23T02:24:57.632Z,4.57
2018-05-23T02:25:32.343Z,4.95
2018-05-23T02:26:06.222Z,4.80
2018-05-23T02:26:40.117Z,4.75
2018-05-23T02:27:14.011Z,4.68
2018-05-23T02:27:47.905Z,4.93
2018-05-23T02:28:21.798Z,5.53
2018-05-23T02:28:55.708Z,5.12
2018-05-23T02:29:29.690Z,5.07
2018-05-23T02:30:03.571Z,5.25
2018-05-23T02:30:37.456Z,4.72
2018-05-23T02:31:11.340Z,4.95
2018-05-23T02:31:45.210Z,4.68
2018-05-23T02:32:19.074Z,5.75
2018-05-23T02:32:52.973Z,4.82
2018-05-23T02:33:26.833Z,4.78
2018-05-23T02:34:00.703Z,5.55
2018-05-23T02:34:34.568Z,5.30
2018-05-23T02:35:08.440Z,4.97
2018-05-23T02:35:42.307Z,4.50
2018-05-23T02:36:16.185Z,5.47
2018-05-23T02:36:50.080Z,4.97
2018-05-23T02:37:23.950Z,5.68
2018-05-23T02:37:57.818Z,4.93
2018-05-23T02:38:31.727Z,5.12
2018-05-23T02:39:06.222Z,5.25
2018-05-23T02:39:40.133Z,5.57
2018-05-23T02:40:14.010Z,4.75
2018-05-23T02:40:47.883Z,4.78
2018-05-23T02:41:21.801Z,4.50
2018-05-23T02:41:55.717Z,5.37
2018-05-23T02:42:29.612Z,5.30
2018-05-23T02:43:03.478Z,4.75
2018-05-23T02:43:37.376Z,5.10
2018-05-23T02:44:11.232Z,5.25
2018-05-23T02:44:45.112Z,4.50
2018-05-23T02:45:18.983Z,5.10
2018-05-23T02:45:52.840Z,4.68
2018-05-23T02:46:26.733Z,5.50
2018-05-23T02:47:00.667Z,4.95
2018-05-23T02:47:34.499Z,5.80
2018-05-23T02:48:08.367Z,5.25
2018-05-23T02:48:42.290Z,5.43
2018-05-23T02:49:16.168Z,5.30
2018-05-23T02:49:50.018Z,6.03
2018-05-23T02:50:23.896Z,4.60
2018-05-23T02:50:57.851Z,5.80
2018-05-23T02:51:31.754Z,6.30
2018-05-23T02:52:05.673Z,6.20
2018-05-23T02:52:39.561Z,4.80
2018-05-23T02:53:13.451Z,5.10
2018-05-23T02:53:47.319Z,5.03
2018-05-23T02:54:21.192Z,4.65
2018-05-23T02:54:55.067Z,4.87
2018-05-23T02:55:28.944Z,4.95
2018-05-23T02:56:02.816Z,5.35
2018-05-23T02:56:36.674Z,5.00
2018-05-23T02:57:10.577Z,4.82
2018-05-23T02:57:44.465Z,5.32
2018-05-23T02:58:18.359Z,5.70
2018-05-23T02:58:52.239Z,5.60
2018-05-23T02:59:26.121Z,5.20
2018-05-23T03:00:00.002Z,4.93
2018-05-23T03:00:33.872Z,4.90
2018-05-23T03:01:07.772Z,4.62
2018-05-23T03:01:41.679Z,5.05
2018-05-23T03:02:15.580Z,4.95
2018-05-23T03:02:49.507Z,4.22
2018-05-23T03:03:23.357Z,4.57
2018-05-23T03:03:57.241Z,4.95
2018-05-23T03:04:31.139Z,4.68
2018-05-23T03:05:05.018Z,4.65
2018-05-23T03:05:38.913Z,5.62
2018-05-23T03:06:12.757Z,5.10
2018-05-23T03:06:46.606Z,4.20
2018-05-23T03:07:20.700Z,4.57
2018-05-23T03:07:54.569Z,4.75
2018-05-23T03:08:28.444Z,4.95
2018-05-23T03:09:02.334Z,5.30
2018-05-23T03:09:36.208Z,5.12
2018-05-23T03:10:10.105Z,4.70
2018-05-23T03:10:43.990Z,5.15
2018-05-23T03:11:17.906Z,4.75
2018-05-23T03:11:51.761Z,4.60
2018-05-23T03:12:25.677Z,4.68
2018-05-23T03:12:59.856Z,4.93
2018-05-23T03:13:33.729Z,4.87
2018-05-23T03:14:07.617Z,5.10
2018-05-23T03:14:41.503Z,4.62
2018-05-23T03:15:15.374Z,5.40
2018-05-23T03:15:49.228Z,4.60
2018-05-23T03:16:23.130Z,4.65
2018-05-23T03:16:57.001Z,4.47
2018-05-23T03:17:30.898Z,5.05
2018-05-23T03:18:04.757Z,5.07
2018-05-23T03:18:38.644Z,5.57
2018-05-23T03:19:12.533Z,5.75
2018-05-23T03:19:46.399Z,5.93
2018-05-23T03:20:20.256Z,4.78
2018-05-23T03:20:54.115Z,5.18
2018-05-23T03:21:27.975Z,5.43
2018-05-23T03:22:01.911Z,4.95
2018-05-23T03:22:35.728Z,5.07
2018-05-23T03:23:09.596Z,5.05
2018-05-23T03:23:43.473Z,5.40
2018-05-23T03:24:17.406Z,5.60
2018-05-23T03:24:51.275Z,6.00
2018-05-23T03:25:25.148Z,5.70
2018-05-23T03:25:59.154Z,5.05
2018-05-23T03:26:33.028Z,5.60
2018-05-23T03:27:06.922Z,5.35
2018-05-23T03:27:40.815Z,5.47
2018-05-23T03:28:14.716Z,7.10
2018-05-23T03:28:48.663Z,6.12
2018-05-23T03:29:22.532Z,5.68
2018-05-23T03:29:56.415Z,4.95
2018-05-23T03:30:30.300Z,5.10
2018-05-23T03:31:04.198Z,5.50
2018-05-23T03:31:38.112Z,5.43
2018-05-23T03:32:11.973Z,5.50
2018-05-23T03:32:45.888Z,5.07
2018-05-23T03:33:19.767Z,4.68
2018-05-23T03:33:53.636Z,4.72
2018-05-23T03:34:27.520Z,4.55
2018-05-23T03:35:01.393Z,6.45
2018-05-23T03:35:35.275Z,5.40
2018-05-23T03:36:09.142Z,5.47
2018-05-23T03:36:42.995Z,5.32
2018-05-23T03:37:16.980Z,5.68
2018-05-23T03:37:51.001Z,5.70
2018-05-23T03:38:24.864Z,5.80
2018-05-23T03:38:58.745Z,5.05
2018-05-23T03:39:32.624Z,4.87
2018-05-23T03:40:06.499Z,4.65
2018-05-23T03:40:40.356Z,5.25
2018-05-23T03:41:14.223Z,4.97
2018-05-23T03:41:48.099Z,5.60
2018-05-23T03:42:21.988Z,5.43
2018-05-23T03:42:55.984Z,5.15
2018-05-23T03:43:29.878Z,5.80
2018-05-23T03:44:03.800Z,5.32
2018-05-23T03:44:37.724Z,5.50
2018-05-23T03:45:11.608Z,5.57
2018-05-23T03:45:45.529Z,5.15
2018-05-23T03:46:19.477Z,5.22
2018-05-23T03:46:53.355Z,5.20
2018-05-23T03:47:27.220Z,4.60
2018-05-23T03:48:01.127Z,4.80
2018-05-23T03:48:35.022Z,5.35
2018-05-23T03:49:08.874Z,5.70
2018-05-23T03:49:42.779Z,4.85
2018-05-23T03:50:16.709Z,5.78
2018-05-23T03:50:50.599Z,5.30
2018-05-23T03:51:24.452Z,5.03
2018-05-23T03:51:58.324Z,6.10
2018-05-23T03:52:32.219Z,5.65
2018-05-23T03:53:06.125Z,5.10
2018-05-23T03:53:40.024Z,5.50
2018-05-23T03:54:13.907Z,5.30
2018-05-23T03:54:47.802Z,5.82
2018-05-23T03:55:21.867Z,5.60
2018-05-23T03:55:55.840Z,5.55
2018-05-23T03:56:29.711Z,6.30
2018-05-23T03:57:03.585Z,5.60
2018-05-23T03:57:37.436Z,5.40
2018-05-23T03:58:11.348Z,5.10
2018-05-23T03:58:45.244Z,5.68
2018-05-23T03:59:34.768Z,5.72
2018-05-23T04:00:14.592Z,5.95
2018-05-23T04:00:54.255Z,6.60
2018-05-23T04:01:33.895Z,6.00
2018-05-23T04:02:13.614Z,5.50
2018-05-23T04:02:53.391Z,5.20
2018-05-23T04:03:33.198Z,5.05
2018-05-23T04:04:12.985Z,5.30
2018-05-23T04:04:52.893Z,6.15
2018-05-23T04:05:32.682Z,6.45
2018-05-23T04:06:12.452Z,5.25
2018-05-23T04:06:52.323Z,5.10
2018-05-23T04:07:32.114Z,5.30
2018-05-23T04:08:06.005Z,5.50
2018-05-23T04:08:39.898Z,5.10
2018-05-23T04:09:13.814Z,5.62
2018-05-23T04:09:47.730Z,6.40
2018-05-23T04:10:21.582Z,5.30
2018-05-23T04:10:55.482Z,5.93
2018-05-23T04:11:29.386Z,5.82
2018-05-23T04:12:03.267Z,5.32
2018-05-23T04:12:37.149Z,5.55
2018-05-23T04:13:11.025Z,5.45
2018-05-23T04:13:44.954Z,5.45
2018-05-23T04:14:18.873Z,5.07
2018-05-23T04:14:52.776Z,5.70
2018-05-23T04:15:26.764Z,5.40
2018-05-23T04:16:00.599Z,5.55
2018-05-23T04:16:34.491Z,6.80
2018-05-23T04:17:08.366Z,5.65
2018-05-23T04:17:42.245Z,5.87
2018-05-23T04:18:16.217Z,5.35
2018-05-23T04:18:50.141Z,4.90
2018-05-23T04:19:24.030Z,6.18
2018-05-23T04:19:57.897Z,5.82
2018-05-23T04:20:31.759Z,5.40
2018-05-23T04:21:05.633Z,5.37
2018-05-23T04:21:39.503Z,5.32
2018-05-23T04:22:13.378Z,5.68
2018-05-23T04:22:47.278Z,5.93
2018-05-23T04:23:21.198Z,6.10
2018-05-23T04:23:55.097Z,5.53
2018-05-23T04:24:28.989Z,6.32
2018-05-23T04:25:02.876Z,5.53
2018-05-23T04:25:36.768Z,6.75
2018-05-23T04:26:10.636Z,7.18
2018-05-23T04:26:44.504Z,5.53
2018-05-23T04:27:18.423Z,5.20
2018-05-23T04:27:52.450Z,6.12
2018-05-23T04:28:26.344Z,5.55
2018-05-23T04:29:00.240Z,5.70
2018-05-23T04:29:34.117Z,5.25
2018-05-23T04:30:08.213Z,5.53
2018-05-23T04:30:42.231Z,5.22
2018-05-23T04:31:16.272Z,5.40
2018-05-23T04:31:50.218Z,5.20
2018-05-23T04:32:24.245Z,5.32
2018-05-23T04:32:58.123Z,5.40
2018-05-23T04:33:32.018Z,5.80
2018-05-23T04:34:05.912Z,5.53
2018-05-23T04:34:39.784Z,5.05
2018-05-23T04:35:13.688Z,6.07
2018-05-23T04:35:47.729Z,5.47
2018-05-23T04:36:21.585Z,6.60
2018-05-23T04:36:55.794Z,6.07
2018-05-23T04:37:29.676Z,6.00
2018-05-23T04:38:03.614Z,5.53
2018-05-23T04:38:37.485Z,5.70
2018-05-23T04:39:11.497Z,5.95
2018-05-23T04:39:45.309Z,6.05
2018-05-23T04:40:19.197Z,6.30
2018-05-23T04:40:53.069Z,6.10
2018-05-23T04:41:27.078Z,6.75
2018-05-23T04:42:00.975Z,6.50
2018-05-23T04:42:34.876Z,7.07
2018-05-23T04:43:08.735Z,5.97
2018-05-23T04:43:42.766Z,5.75
2018-05-23T04:44:16.735Z,7.80
2018-05-23T04:44:50.608Z,9.80
2018-05-23T04:45:24.513Z,8.38
2018-05-23T04:45:58.398Z,7.28
2018-05-23T04:46:32.279Z,5.70
2018-05-23T04:47:06.152Z,6.20
2018-05-23T04:47:40.026Z,6.12
2018-05-23T04:48:13.896Z,6.30
2018-05-23T04:48:47.857Z,5.55
2018-05-23T04:49:21.662Z,5.30
2018-05-23T04:49:55.523Z,5.57
2018-05-23T04:50:29.404Z,5.75
2018-05-23T04:51:03.291Z,5.80
2018-05-23T04:51:37.194Z,6.15
2018-05-23T04:52:11.096Z,6.30
2018-05-23T04:52:44.981Z,5.70
2018-05-23T04:53:18.879Z,5.50
2018-05-23T04:53:52.810Z,5.82
2018-05-23T04:54:26.694Z,6.07
2018-05-23T04:55:00.562Z,5.65
2018-05-23T04:55:34.449Z,5.47
2018-05-23T04:56:08.346Z,5.05
2018-05-23T04:56:42.244Z,5.75
2018-05-23T04:57:16.353Z,6.05
2018-05-23T04:57:50.267Z,6.90
2018-05-23T04:58:24.195Z,5.93
2018-05-23T04:58:58.061Z,5.78
2018-05-23T04:59:31.941Z,5.85
2018-05-23T05:00:05.830Z,6.15
2018-05-23T05:00:39.768Z,6.95
2018-05-23T05:01:13.635Z,6.12
2018-05-23T05:01:47.520Z,6.50
2018-05-23T05:02:21.416Z,6.60
2018-05-23T05:02:55.288Z,6.35
2018-05-23T05:03:29.243Z,6.80
2018-05-23T05:04:03.225Z,5.70
2018-05-23T05:04:37.160Z,6.55
2018-05-23T05:05:11.071Z,6.78
2018-05-23T05:05:44.962Z,5.50
2018-05-23T05:06:18.855Z,6.15
2018-05-23T05:06:52.714Z,5.37
2018-05-23T05:07:26.603Z,6.03
2018-05-23T05:08:01.598Z,5.97
2018-05-23T05:08:35.630Z,5.87
2018-05-23T05:09:09.582Z,5.70
2018-05-23T05:09:43.606Z,5.87
2018-05-23T05:10:17.617Z,5.32
2018-05-23T05:10:51.695Z,5.37
2018-05-23T05:11:25.590Z,6.80
2018-05-23T05:11:59.499Z,6.35
2018-05-23T05:12:33.382Z,6.60
2018-05-23T05:13:07.388Z,7.03
2018-05-23T05:13:41.278Z,5.87
2018-05-23T05:14:15.315Z,6.10
2018-05-23T05:14:49.240Z,5.95
2018-05-23T05:15:23.131Z,7.22
2018-05-23T05:15:57.057Z,6.35
2018-05-23T05:16:30.949Z,6.30
2018-05-23T05:17:04.871Z,5.80
2018-05-23T05:17:38.760Z,5.68
2018-05-23T05:18:12.696Z,6.00
2018-05-23T05:18:46.627Z,5.62
2018-05-23T05:19:20.602Z,6.90
2018-05-23T05:19:54.523Z,5.60
2018-05-23T05:20:28.441Z,5.75
2018-05-23T05:21:02.333Z,6.25
2018-05-23T05:21:36.289Z,5.40
2018-05-23T05:22:10.194Z,5.60
2018-05-23T05:22:44.072Z,6.37
2018-05-23T05:23:17.948Z,5.72
2018-05-23T05:23:51.891Z,5.97
2018-05-23T05:24:25.932Z,6.12
2018-05-23T05:24:59.894Z,5.95
2018-05-23T05:25:35.430Z,5.40
2018-05-23T05:26:09.331Z,6.03
2018-05-23T05:26:43.276Z,5.80
2018-05-23T05:27:17.155Z,6.65
2018-05-23T05:27:51.060Z,5.90
2018-05-23T05:28:24.947Z,6.65
2018-05-23T05:28:59.084Z,6.00
2018-05-23T05:29:32.983Z,6.68
2018-05-23T05:30:07.049Z,6.43
2018-05-23T05:30:40.985Z,6.20
2018-05-23T05:31:14.880Z,6.60
2018-05-23T05:31:48.858Z,5.65
2018-05-23T05:32:22.690Z,7.30
2018-05-23T05:32:56.568Z,7.65
2018-05-23T05:33:30.482Z,7.53
2018-05-23T05:34:04.402Z,6.12
2018-05-23T05:34:38.418Z,6.15
2018-05-23T05:35:12.574Z,6.47
2018-05-23T05:35:46.454Z,5.70
2018-05-23T05:36:20.381Z,6.75
2018-05-23T05:36:54.286Z,6.07
2018-05-23T05:37:28.166Z,5.60
2018-05-23T05:38:02.079Z,6.75
2018-05-23T05:38:35.965Z,5.90
2018-05-23T05:39:09.852Z,5.35
2018-05-23T05:39:43.757Z,5.32
2018-05-23T05:40:17.673Z,5.80
2018-05-23T05:40:51.592Z,5.50
2018-05-23T05:41:25.489Z,6.70
2018-05-23T05:41:59.560Z,6.15
2018-05-23T05:42:33.507Z,6.00
2018-05-23T05:43:07.418Z,6.00
2018-05-23T05:43:41.543Z,7.05
2018-05-23T05:44:15.496Z,6.53
2018-05-23T05:44:49.377Z,5.50
2018-05-23T05:45:23.388Z,6.43
2018-05-23T05:45:57.253Z,6.20
2018-05-23T05:46:31.152Z,5.97
2018-05-23T05:47:05.075Z,6.60
2018-05-23T05:47:38.990Z,5.25
2018-05-23T05:48:12.896Z,6.37
2018-05-23T05:48:46.801Z,6.30
2018-05-23T05:49:20.719Z,6.60
2018-05-23T05:49:54.574Z,5.60
2018-05-23T05:50:28.747Z,5.53
2018-05-23T05:51:02.762Z,6.00
2018-05-23T05:51:36.618Z,6.70
2018-05-23T05:52:10.567Z,6.30
2018-05-23T05:52:44.472Z,5.87
2018-05-23T05:53:18.546Z,6.28
2018-05-23T05:53:52.664Z,5.68
2018-05-23T05:54:26.619Z,6.75
2018-05-23T05:55:00.512Z,6.57
2018-05-23T05:55:34.428Z,6.50
2018-05-23T05:56:08.441Z,6.68
2018-05-23T05:56:42.340Z,6.10
2018-05-23T05:57:16.318Z,5.57
2018-05-23T05:57:50.294Z,5.50
2018-05-23T05:58:24.152Z,6.15
2018-05-23T05:58:58.041Z,5.80
2018-05-23T05:59:31.928Z,6.07
2018-05-23T06:00:05.827Z,6.22
2018-05-23T06:00:39.723Z,5.90
2018-05-23T06:01:13.635Z,6.05
2018-05-23T06:01:47.496Z,6.00
2018-05-23T06:02:21.431Z,6.37
2018-05-23T06:02:55.274Z,5.25
2018-05-23T06:03:29.174Z,5.65
2018-05-23T06:04:03.057Z,6.30
2018-05-23T06:04:37.066Z,6.93
2018-05-23T06:05:10.961Z,6.10
2018-05-23T06:05:44.859Z,6.15
2018-05-23T06:06:18.801Z,6.05
2018-05-23T06:06:52.667Z,6.72
2018-05-23T06:07:26.542Z,7.10
2018-05-23T06:08:00.419Z,8.85
2018-05-23T06:08:34.507Z,7.28
2018-05-23T06:09:08.433Z,6.53
2018-05-23T06:09:42.377Z,6.28
2018-05-23T06:10:16.268Z,7.05
2018-05-23T06:10:50.164Z,6.65
2018-05-23T06:11:24.228Z,6.05
2018-05-23T06:11:59.962Z,6.20
2018-05-23T06:12:33.900Z,6.40
2018-05-23T06:13:07.788Z,5.60
2018-05-23T06:13:42.451Z,5.87
2018-05-23T06:14:16.391Z,6.10
2018-05-23T06:14:50.287Z,5.32
2018-05-23T06:15:24.190Z,5.70
2018-05-23T06:15:58.117Z,6.70
2018-05-23T06:16:32.478Z,6.22
2018-05-23T06:17:06.785Z,7.03
2018-05-23T06:17:41.544Z,6.00
2018-05-23T06:18:15.705Z,7.35
2018-05-23T06:18:49.615Z,6.80
2018-05-23T06:19:23.485Z,5.90
2018-05-23T06:19:57.390Z,6.25
2018-05-23T06:20:31.281Z,6.35
2018-05-23T06:21:05.180Z,5.82
2018-05-23T06:21:39.079Z,5.87
2018-05-23T06:22:13.048Z,6.75
2018-05-23T06:22:46.917Z,5.85
2018-05-23T06:23:20.799Z,5.45
2018-05-23T06:23:54.825Z,6.10
2018-05-23T06:24:28.742Z,5.45
2018-05-23T06:25:02.755Z,6.03
2018-05-23T06:25:36.663Z,5.90
2018-05-23T06:26:10.535Z,5.90
2018-05-23T06:26:44.426Z,6.97
2018-05-23T06:27:18.796Z,6.50
2018-05-23T06:27:52.652Z,5.90
2018-05-23T06:28:26.912Z,6.22
2018-05-23T06:29:00.798Z,6.35
2018-05-23T06:29:34.677Z,7.70
2018-05-23T06:30:08.557Z,7.43
2018-05-23T06:30:42.478Z,12.00
2018-05-23T06:31:16.406Z,12.48
2018-05-23T06:31:50.292Z,14.25
2018-05-23T06:32:24.288Z,22.40
2018-05-23T06:32:59.210Z,11.12
2018-05-23T06:33:33.174Z,9.02
2018-05-23T06:34:07.057Z,21.20
2018-05-23T06:34:40.927Z,10.30
2018-05-23T06:35:14.857Z,12.65
2018-05-23T06:35:48.799Z,8.07
2018-05-23T06:36:22.726Z,6.65
2018-05-23T06:36:56.785Z,12.37
2018-05-23T06:37:30.886Z,10.18
2018-05-23T06:38:05.006Z,7.00
2018-05-23T06:38:39.204Z,5.45
2018-05-23T06:39:13.116Z,5.53
2018-05-23T06:39:47.007Z,4.85
2018-05-23T06:40:20.873Z,5.80
2018-05-23T06:40:54.768Z,6.60
2018-05-23T06:41:28.659Z,5.53
2018-05-23T06:42:02.552Z,5.65
2018-05-23T06:42:36.441Z,5.90
2018-05-23T06:43:10.304Z,5.25
2018-05-23T06:43:44.161Z,5.50
2018-05-23T06:44:18.086Z,5.40
2018-05-23T06:44:51.991Z,6.22
2018-05-23T06:45:26.126Z,5.05
2018-05-23T06:46:00.175Z,6.30
2018-05-23T06:46:34.093Z,6.30
2018-05-23T06:47:07.967Z,6.12
2018-05-23T06:47:41.836Z,5.65
2018-05-23T06:48:15.727Z,5.15
2018-05-23T06:48:49.596Z,5.55
2018-05-23T06:49:23.455Z,6.30
2018-05-23T06:49:57.359Z,5.35
2018-05-23T06:50:31.219Z,5.82
2018-05-23T06:51:05.153Z,6.78
2018-05-23T06:51:39.071Z,6.07
2018-05-23T06:52:12.963Z,5.55
2018-05-23T06:52:46.816Z,6.10
2018-05-23T06:53:20.729Z,6.22
2018-05-23T06:53:54.864Z,6.87
2018-05-23T06:54:28.753Z,5.85
2018-05-23T06:55:02.677Z,5.65
2018-05-23T06:55:36.648Z,5.55
2018-05-23T06:56:10.713Z,6.25
2018-05-23T06:56:44.600Z,5.60
2018-05-23T06:57:18.486Z,5.43
2018-05-23T06:57:52.339Z,6.47
2018-05-23T06:58:26.287Z,5.60
2018-05-23T06:59:00.147Z,5.87
2018-05-23T06:59:34.068Z,5.20
2018-05-23T07:00:07.945Z,7.15
2018-05-23T07:00:41.822Z,6.22
2018-05-23T07:01:15.701Z,5.82
2018-05-23T07:01:49.607Z,6.22
2018-05-23T07:02:23.611Z,6.45
2018-05-23T07:02:57.481Z,6.47
2018-05-23T07:03:31.339Z,5.35
2018-05-23T07:04:05.238Z,6.30
2018-05-23T07:04:39.133Z,5.70
2018-05-23T07:05:13.024Z,5.37
2018-05-23T07:05:46.974Z,4.65
2018-05-23T07:06:20.854Z,5.55
2018-05-23T07:06:54.739Z,6.18
2018-05-23T07:07:28.595Z,6.68
2018-05-23T07:08:02.515Z,7.32
2018-05-23T07:08:36.348Z,5.60
2018-05-23T07:09:10.207Z,6.15
2018-05-23T07:09:44.085Z,5.82
2018-05-23T07:10:18.005Z,6.20
2018-05-23T07:10:52.067Z,5.25
2018-05-23T07:11:25.937Z,5.35
2018-05-23T07:11:59.813Z,4.75
2018-05-23T07:12:34.481Z,6.03
2018-05-23T07:13:08.351Z,4.97
2018-05-23T07:13:42.204Z,5.40
2018-05-23T07:14:16.082Z,5.30
2018-05-23T07:14:49.946Z,4.87
2018-05-23T07:15:23.893Z,5.62
2018-05-23T07:15:57.806Z,5.35
2018-05-23T07:16:31.681Z,5.85
2018-05-23T07:17:05.572Z,5.55
2018-05-23T07:17:39.449Z,5.03
2018-05-23T07:18:13.352Z,5.47
2018-05-23T07:18:47.199Z,5.18
2018-05-23T07:19:21.046Z,4.80
2018-05-23T07:19:55.103Z,5.40
2018-05-23T07:20:29.066Z,5.43
2018-05-23T07:21:02.939Z,5.10
2018-05-23T07:21:36.811Z,5.12
2018-05-23T07:22:10.867Z,4.50
2018-05-23T07:22:44.730Z,5.70
2018-05-23T07:23:18.593Z,5.07
2018-05-23T07:23:52.520Z,6.60
2018-05-23T07:24:26.428Z,5.97
2018-05-23T07:25:00.312Z,6.40
2018-05-23T07:25:34.216Z,5.40
2018-05-23T07:26:08.084Z,5.30
2018-05-23T07:26:41.952Z,6.00
2018-05-23T07:27:15.858Z,5.87
2018-05-23T07:27:49.797Z,6.30
2018-05-23T07:28:23.673Z,6.32
2018-05-23T07:28:57.749Z,5.22
2018-05-23T07:29:31.617Z,5.87
2018-05-23T07:30:05.901Z,5.00
2018-05-23T07:30:40.203Z,4.85
2018-05-23T07:31:14.049Z,4.75
2018-05-23T07:31:48.034Z,5.70
2018-05-23T07:32:23.250Z,5.78
2018-05-23T07:32:57.126Z,4.60
2018-05-23T07:33:32.739Z,5.15